Time;durP1;ratioP1;P1;durP2;ratioP2;P2;SDS_P1;SDS_P2;PMS_P1;PMS_P2;Temp;Humidity;BMP_temperature;BMP_pressure;BME280_temperature;BME280_humidity;BME280_pressure;Samples;Min_cycle;Max_cycle;Signal;HPM_P1;HPM_P2
2022/07/13 00:02:24;;;;;;;;;;;;;;;17.84;61.24;99549.44;4910720;29;19927;-70
2022/07/13 00:04:51;;;;;;;;;;;;;;;17.81;61.78;99543.78;4913129;29;19954;-69
2022/07/13 00:07:17;;;;;;;;;;;;;;;17.76;63.21;99541.16;4908564;29;19957;-69
2022/07/13 00:09:43;;;;;;;;;;;;;;;17.68;64.19;99543.66;4911439;29;19927;-68
2022/07/13 00:12:09;;;;;;;;;;;;;;;17.61;65.05;99550.81;4909041;29;19926;-70
2022/07/13 00:14:34;;;;;;;;;;;;;;;17.51;65.33;99549.22;4926128;29;20459;-69
2022/07/13 00:17:00;;;;;;;;;;;;;;;17.44;65.72;99538.66;4910601;29;19926;-68
2022/07/13 00:19:26;;;;;;;;;;;;;;;17.41;65.88;99553.13;4912125;29;19926;-68
2022/07/13 00:21:55;;;;;;;;;;;;;;;17.37;66.00;99546.59;4910406;29;19927;-69
2022/07/13 00:24:20;;;;;;;;;;;;;;;17.32;66.16;99547.59;4911252;29;20360;-70
2022/07/13 00:26:46;;;;;;;;;;;;;;;17.31;66.08;99551.50;4909465;29;19927;-67
2022/07/13 00:29:12;;;;;;;;;;;;;;;17.29;66.26;99546.31;4910111;29;19951;-67
2022/07/13 00:31:38;;;;;;;;;;;;;;;17.28;66.40;99541.91;4923843;29;19962;-68
2022/07/13 00:34:04;;;;;;;;;;;;;;;17.27;66.24;99537.53;4908399;29;20335;-67
2022/07/13 00:36:29;;;;;;;;;;;;;;;17.28;66.66;99541.09;4924645;29;19931;-67
2022/07/13 00:38:56;;;;;;;;;;;;;;;17.27;66.56;99536.72;4912567;29;20026;-67
2022/07/13 00:41:22;;;;;;;;;;;;;;;17.24;66.76;99543.69;4909863;29;20053;-69
2022/07/13 00:43:48;;;;;;;;;;;;;;;17.22;66.92;99554.25;4910204;29;19931;-69
2022/07/13 00:46:14;;;;;;;;;;;;;;;17.19;66.82;99541.09;4923478;29;19927;-68
2022/07/13 00:48:41;;;;;;;;;;;;;;;17.17;67.32;99548.09;4909656;29;20055;-67
2022/07/13 00:51:07;;;;;;;;;;;;;;;17.20;67.39;99542.72;4909140;29;20461;-66
2022/07/13 00:53:37;;;;;;;;;;;;;;;17.35;67.56;99544.19;4909195;29;19927;-68
2022/07/13 00:56:05;;;;;;;;;;;;;;;17.49;67.53;99541.22;4911930;29;19927;-68
2022/07/13 00:58:31;;;;;;;;;;;;;;;17.49;67.53;99544.00;4923565;29;20029;-67
2022/07/13 01:00:57;;;;;;;;;;;;;;;17.39;68.12;99544.31;4926866;29;19977;-66
2022/07/13 01:03:23;;;;;;;;;;;;;;;17.37;68.91;99541.09;4910800;29;20552;-66
2022/07/13 01:05:49;;;;;;;;;;;;;;;17.31;68.92;99545.16;4925967;29;19927;-67
2022/07/13 01:08:15;;;;;;;;;;;;;;;17.20;69.18;99536.41;4909091;29;19990;-68
2022/07/13 01:10:42;;;;;;;;;;;;;;;17.09;69.28;99536.72;4907950;29;19931;-66
2022/07/13 01:13:11;;;;;;;;;;;;;;;17.00;69.62;99544.19;4922998;29;19926;-68
2022/07/13 01:15:37;;;;;;;;;;;;;;;16.92;69.56;99536.69;4925448;29;20352;-66
2022/07/13 01:18:03;;;;;;;;;;;;;;;16.89;69.82;99529.84;4909215;29;20415;-66
2022/07/13 01:20:29;;;;;;;;;;;;;;;16.89;70.26;99537.34;4908450;29;20318;-67
2022/07/13 01:22:56;;;;;;;;;;;;;;;16.87;70.11;99527.44;4908996;29;19930;-67
2022/07/13 01:25:23;;;;;;;;;;;;;;;16.92;70.75;99536.69;4908353;29;19990;-67
2022/07/13 01:27:49;;;;;;;;;;;;;;;16.94;70.56;99528.91;4909768;29;19927;-67
2022/07/13 01:30:16;;;;;;;;;;;;;;;16.95;70.30;99536.88;4926173;29;19931;-68
2022/07/13 01:32:43;;;;;;;;;;;;;;;17.02;70.19;99533.66;4908448;29;20025;-68
2022/07/13 01:35:08;;;;;;;;;;;;;;;17.06;70.26;99531.03;4909163;29;19949;-67
2022/07/13 01:37:35;;;;;;;;;;;;;;;17.09;70.66;99536.72;4910505;29;20410;-69
2022/07/13 01:40:00;;;;;;;;;;;;;;;17.11;70.52;99534.44;4910184;29;19926;-67
2022/07/13 01:42:27;;;;;;;;;;;;;;;17.14;71.00;99538.50;4908498;29;19950;-67
2022/07/13 01:44:54;;;;;;;;;;;;;;;17.17;70.64;99528.75;4909370;29;19926;-67
2022/07/13 01:47:21;;;;;;;;;;;;;;;17.23;70.65;99524.69;4906693;29;20486;-66
2022/07/13 01:49:47;;;;;;;;;;;;;;;17.29;70.42;99535.25;4906572;29;20025;-68
2022/07/13 01:52:13;;;;;;;;;;;;;;;17.30;70.43;99522.25;4922999;29;19950;-66
2022/07/13 01:54:38;;;;;;;;;;;;;;;17.31;70.33;99521.09;4909032;29;19982;-69
2022/07/13 01:57:04;;;;;;;;;;;;;;;17.35;70.36;99522.09;4911611;29;19934;-70
2022/07/13 01:59:31;;;;;;;;;;;;;;;17.40;70.21;99518.31;4910724;29;19927;-69
2022/07/13 02:01:57;;;;;;;;;;;;;;;17.40;69.54;99521.09;4909603;29;19933;-70
2022/07/13 02:04:23;;;;;;;;;;;;;;;17.41;69.66;99529.06;4909880;29;19926;-69
2022/07/13 02:06:49;;;;;;;;;;;;;;;17.45;69.57;99529.22;4907615;29;19984;-70
2022/07/13 02:09:18;;;;;;;;;;;;;;;17.56;69.41;99533.28;4909081;29;19927;-69
2022/07/13 02:11:44;;;;;;;;;;;;;;;17.61;68.71;99532.25;4906305;29;19997;-68
2022/07/13 02:14:10;;;;;;;;;;;;;;;17.65;68.95;99533.25;4908329;29;20028;-70
2022/07/13 02:16:37;;;;;;;;;;;;;;;17.68;68.70;99529.81;4892141;29;19927;-66
2022/07/13 02:19:03;;;;;;;;;;;;;;;17.76;68.62;99532.88;4908870;29;19927;-67
2022/07/13 02:21:30;;;;;;;;;;;;;;;17.79;68.14;99523.91;4922497;29;20341;-67
2022/07/13 02:23:56;;;;;;;;;;;;;;;17.83;68.19;99524.91;4909468;29;20402;-66
2022/07/13 02:26:21;;;;;;;;;;;;;;;17.88;68.14;99521.94;4909482;29;19927;-67
2022/07/13 02:28:47;;;;;;;;;;;;;;;17.91;68.31;99529.56;4910201;29;19927;-67
2022/07/13 02:31:13;;;;;;;;;;;;;;;17.97;68.26;99533.78;4921982;29;19931;-67
2022/07/13 02:33:41;;;;;;;;;;;;;;;18.01;67.97;99528.38;4923506;29;20324;-68
2022/07/13 02:36:07;;;;;;;;;;;;;;;17.98;68.10;99518.00;4923028;29;19927;-67
2022/07/13 02:38:32;;;;;;;;;;;;;;;18.01;67.90;99522.84;4907304;29;20389;-67
2022/07/13 02:40:58;;;;;;;;;;;;;;;18.06;68.07;99514.44;4922152;29;19927;-68
2022/07/13 02:43:24;;;;;;;;;;;;;;;18.08;68.08;99517.66;4907322;29;19950;-69
2022/07/13 02:45:49;;;;;;;;;;;;;;;18.11;67.79;99514.22;4908182;29;19938;-66
2022/07/13 02:48:15;;;;;;;;;;;;;;;18.13;68.09;99500.09;4924372;29;19959;-67
2022/07/13 02:50:42;;;;;;;;;;;;;;;18.13;67.98;99505.63;4908313;29;20577;-67
2022/07/13 02:53:08;;;;;;;;;;;;;;;18.16;68.06;99507.72;4906236;29;19931;-68
2022/07/13 02:55:35;;;;;;;;;;;;;;;18.18;68.10;99508.19;4907091;29;19926;-66
2022/07/13 02:58:01;;;;;;;;;;;;;;;18.14;67.91;99498.94;4924445;29;20022;-67
2022/07/13 03:00:28;;;;;;;;;;;;;;;18.21;67.16;99507.50;4923290;29;20510;-68
2022/07/13 03:02:54;;;;;;;;;;;;;;;18.20;66.85;99508.66;4908347;29;19927;-66
2022/07/13 03:05:20;;;;;;;;;;;;;;;18.19;66.60;99520.06;4910773;29;19927;-66
2022/07/13 03:07:47;;;;;;;;;;;;;;;18.18;66.44;99519.25;4909759;29;20379;-67
2022/07/13 03:10:13;;;;;;;;;;;;;;;18.19;66.34;99523.63;4907934;29;20331;-68
2022/07/13 03:12:40;;;;;;;;;;;;;;;18.20;66.64;99514.19;4922676;29;19926;-68
2022/07/13 03:15:07;;;;;;;;;;;;;;;18.21;67.02;99518.56;4910518;29;19933;-71
2022/07/13 03:17:33;;;;;;;;;;;;;;;18.24;66.75;99528.97;4905671;29;19930;-71
2022/07/13 03:20:03;;;;;;;;;;;;;;;18.25;66.57;99527.03;4923033;29;19927;-70
2022/07/13 03:22:29;;;;;;;;;;;;;;;18.26;66.61;99529.47;4903546;29;19940;-70
2022/07/13 03:24:58;;;;;;;;;;;;;;;18.26;66.72;99535.00;4904923;29;20467;-69
2022/07/13 03:27:24;;;;;;;;;;;;;;;18.31;67.24;99538.72;4922118;29;19954;-70
2022/07/13 03:29:50;;;;;;;;;;;;;;;18.33;67.03;99541.97;4923053;29;19927;-68
2022/07/13 03:32:15;;;;;;;;;;;;;;;18.35;67.39;99539.66;4907658;29;20530;-69
2022/07/13 03:34:41;;;;;;;;;;;;;;;18.46;67.28;99540.09;4924721;29;19927;-67
2022/07/13 03:37:08;;;;;;;;;;;;;;;18.51;67.12;99535.19;4924114;29;19991;-71
2022/07/13 03:39:35;;;;;;;;;;;;;;;18.57;67.08;99538.56;4909346;29;19942;-70
2022/07/13 03:42:04;;;;;;;;;;;;;;;18.60;67.12;99532.34;4926099;29;19927;-70
2022/07/13 03:44:29;;;;;;;;;;;;;;;18.61;66.82;99525.66;4911579;29;19926;-69
2022/07/13 03:46:55;;;;;;;;;;;;;;;18.64;66.88;99529.72;4910408;29;20029;-69
2022/07/13 03:49:21;;;;;;;;;;;;;;;18.66;66.53;99525.50;4913369;29;19947;-68
2022/07/13 03:51:48;;;;;;;;;;;;;;;18.70;66.18;99531.97;4907994;29;19927;-69
2022/07/13 03:54:14;;;;;;;;;;;;;;;18.74;66.11;99526.59;4908744;29;20292;-69
2022/07/13 03:56:40;;;;;;;;;;;;;;;18.81;65.76;99528.78;4909435;29;19982;-69
2022/07/13 03:59:08;;;;;;;;;;;;;;;18.89;65.66;99529.88;4925186;29;19926;-68
2022/07/13 04:01:34;;;;;;;;;;;;;;;18.96;65.32;99535.69;4911934;29;19934;-71
2022/07/13 04:04:00;;;;;;;;;;;;;;;19.06;65.15;99537.28;4926459;29;20367;-70
2022/07/13 04:06:26;;;;;;;;;;;;;;;19.11;64.76;99543.41;4926767;29;20020;-66
2022/07/13 04:08:52;;;;;;;;;;;;;;;19.15;64.68;99542.72;4909996;29;20403;-66
2022/07/13 04:11:18;;;;;;;;;;;;;;;19.19;63.87;99538.13;4927617;29;19962;-68
2022/07/13 04:13:44;;;;;;;;;;;;;;;19.22;63.36;99534.69;4910151;29;19991;-68
2022/07/13 04:16:11;;;;;;;;;;;;;;;19.24;62.89;99540.72;4910179;29;20446;-68
2022/07/13 04:18:39;;;;;;;;;;;;;;;19.27;62.50;99542.78;4909653;29;19970;-68
2022/07/13 04:21:05;;;;;;;;;;;;;;;19.34;62.35;99540.28;4908988;29;19962;-68
2022/07/13 04:23:32;;;;;;;;;;;;;;;19.37;62.17;99539.63;4910288;29;19927;-69
2022/07/13 04:25:58;;;;;;;;;;;;;;;19.41;61.96;99539.72;4912993;29;20386;-70
2022/07/13 04:28:24;;;;;;;;;;;;;;;19.49;61.86;99535.25;4910976;29;19974;-69
2022/07/13 04:30:50;;;;;;;;;;;;;;;19.53;61.37;99538.97;4892998;29;20285;-70
2022/07/13 04:33:19;;;;;;;;;;;;;;;19.58;61.45;99537.94;4910246;29;20395;-70
2022/07/13 04:35:45;;;;;;;;;;;;;;;19.62;61.31;99525.03;4927902;29;20407;-69
2022/07/13 04:38:11;;;;;;;;;;;;;;;19.68;61.28;99524.47;4928056;29;19927;-70
2022/07/13 04:40:36;;;;;;;;;;;;;;;19.77;60.93;99520.75;4910590;29;19960;-68
2022/07/13 04:43:02;;;;;;;;;;;;;;;19.83;61.02;99522.97;4926926;29;19927;-69
2022/07/13 04:45:28;;;;;;;;;;;;;;;19.92;61.04;99517.34;4925727;29;19931;-70
2022/07/13 04:47:54;;;;;;;;;;;;;;;19.98;60.71;99532.63;4922470;29;19926;-71
2022/07/13 04:50:23;;;;;;;;;;;;;;;20.03;60.34;99530.78;4901539;29;21313;-70
2022/07/13 04:52:49;;;;;;;;;;;;;;;20.06;60.34;99525.34;4909821;29;19931;-69
2022/07/13 04:55:16;;;;;;;;;;;;;;;20.11;60.11;99532.63;4910802;29;19931;-67
2022/07/13 04:57:42;;;;;;;;;;;;;;;20.18;59.95;99527.31;4889664;29;19982;-68
2022/07/13 05:00:09;;;;;;;;;;;;;;;20.23;59.20;99529.06;4908227;29;20344;-67
2022/07/13 05:02:35;;;;;;;;;;;;;;;20.24;59.51;99525.13;4908905;29;20323;-66
2022/07/13 05:05:02;;;;;;;;;;;;;;;20.34;58.58;99519.09;4909906;29;19935;-67
2022/07/13 05:07:30;;;;;;;;;;;;;;;20.43;58.37;99526.50;4907830;29;20327;-68
2022/07/13 05:09:56;;;;;;;;;;;;;;;20.43;57.32;99521.75;4907014;29;19927;-68
2022/07/13 05:12:22;;;;;;;;;;;;;;;20.45;57.03;99518.63;4910739;29;19933;-68
2022/07/13 05:14:48;;;;;;;;;;;;;;;20.50;57.23;99518.38;4908847;29;19927;-68
2022/07/13 05:17:14;;;;;;;;;;;;;;;20.57;57.13;99512.25;4909787;29;19998;-68
2022/07/13 05:19:39;;;;;;;;;;;;;;;20.63;56.82;99514.44;4910309;29;19935;-68
2022/07/13 05:22:06;;;;;;;;;;;;;;;20.74;57.32;99508.41;4908188;29;20399;-68
2022/07/13 05:24:34;;;;;;;;;;;;;;;20.77;57.41;99514.06;4909121;29;19927;-68
2022/07/13 05:27:00;;;;;;;;;;;;;;;20.79;57.60;99505.38;4923118;29;19974;-68
2022/07/13 05:29:25;;;;;;;;;;;;;;;20.80;57.60;99504.22;4911212;29;19934;-67
2022/07/13 05:31:52;;;;;;;;;;;;;;;20.86;57.55;99496.47;4903652;29;19927;-68
2022/07/13 05:34:17;;;;;;;;;;;;;;;20.92;57.14;99500.63;4906300;29;20462;-68
2022/07/13 05:36:46;;;;;;;;;;;;;;;20.97;56.78;99505.94;4906383;29;20467;-68
2022/07/13 05:39:12;;;;;;;;;;;;;;;20.95;56.86;99506.28;4908815;29;19950;-71
2022/07/13 05:41:40;;;;;;;;;;;;;;;20.95;56.76;99503.50;4924765;29;19927;-71
2022/07/13 05:44:05;;;;;;;;;;;;;;;20.94;56.27;99504.66;4911752;29;20018;-70
2022/07/13 05:46:31;;;;;;;;;;;;;;;20.96;56.56;99495.97;4907649;29;19958;-70
2022/07/13 05:48:57;;;;;;;;;;;;;;;20.96;56.53;99499.56;4906000;29;19927;-69
2022/07/13 05:51:24;;;;;;;;;;;;;;;20.93;56.50;99505.81;4922459;29;20037;-67
2022/07/13 05:53:52;;;;;;;;;;;;;;;20.92;55.42;99501.44;4885770;29;20336;-69
2022/07/13 05:56:18;;;;;;;;;;;;;;;20.83;55.35;99497.97;4919465;29;20378;-69
2022/07/13 05:58:45;;;;;;;;;;;;;;;20.84;55.70;99491.28;4903244;29;19926;-68
2022/07/13 06:01:11;;;;;;;;;;;;;;;20.93;55.78;99493.91;4883710;29;19974;-68
2022/07/13 06:03:37;;;;;;;;;;;;;;;21.04;55.96;99497.00;4883445;29;20403;-68
2022/07/13 06:06:03;;;;;;;;;;;;;;;21.12;55.46;99487.69;4884788;29;19962;-69
2022/07/13 06:08:29;;;;;;;;;;;;;;;21.15;55.75;99500.91;4884329;29;19991;-68
2022/07/13 06:10:55;;;;;;;;;;;;;;;21.18;55.63;99489.06;4888831;29;19927;-68
2022/07/13 06:13:20;;;;;;;;;;;;;;;21.23;55.90;99488.81;4888948;29;19927;-69
2022/07/13 06:15:48;;;;;;;;;;;;;;;21.27;55.60;99490.88;4888918;29;20456;-69
2022/07/13 06:18:13;;;;;;;;;;;;;;;21.28;55.46;99489.69;4888326;29;19928;-68
2022/07/13 06:20:39;;;;;;;;;;;;;;;21.27;55.89;99497.25;4886634;29;20220;-68
2022/07/13 06:23:11;;;;;;;;;;;;;;;21.34;56.09;99499.41;4883846;29;20327;-68
2022/07/13 06:25:37;;;;;;;;;;;;;;;21.43;55.21;99491.69;4890093;29;20423;-68
2022/07/13 06:28:03;;;;;;;;;;;;;;;21.65;55.15;99495.91;4887793;29;19953;-69
2022/07/13 06:30:38;;;;;;;;;;;;;;;21.86;53.92;99478.16;5101379;27;20046;-69
2022/07/13 06:33:04;;;;;;;;;;;;;;;22.10;53.10;99491.06;5083793;28;19928;-68
2022/07/13 06:35:29;;;;;;;;;;;;;;;22.33;52.63;99490.38;5081166;28;20027;-68
2022/07/13 06:37:55;;;;;;;;;;;;;;;22.57;51.96;99484.97;5080098;28;19935;-68
2022/07/13 06:40:21;;;;;;;;;;;;;;;22.73;51.59;99493.28;5080441;28;19929;-68
2022/07/13 06:42:47;;;;;;;;;;;;;;;22.91;50.99;99488.91;5089481;28;20030;-69
2022/07/13 06:45:15;;;;;;;;;;;;;;;22.92;50.06;99487.72;5089369;28;19932;-68
2022/07/13 06:47:42;;;;;;;;;;;;;;;22.98;50.81;99488.25;5093014;28;19932;-70
2022/07/13 06:50:08;;;;;;;;;;;;;;;23.31;50.20;99474.94;5093150;28;19932;-68
2022/07/13 06:52:34;;;;;;;;;;;;;;;23.63;49.37;99480.31;5079908;28;19928;-68
2022/07/13 06:55:00;;;;;;;;;;;;;;;23.76;48.41;99480.94;5084567;28;19928;-68
2022/07/13 06:57:26;;;;;;;;;;;;;;;23.78;47.19;99484.97;5084193;28;20464;-69
2022/07/13 06:59:52;;;;;;;;;;;;;;;23.54;46.34;99485.34;5088035;28;19981;-67
2022/07/13 07:02:18;;;;;;;;;;;;;;;23.46;47.25;99493.56;5092496;28;20394;-68
2022/07/13 07:04:45;;;;;;;;;;;;;;;23.31;48.44;99472.97;5096371;28;19954;-69
2022/07/13 07:07:10;;;;;;;;;;;;;;;23.28;49.00;99470.94;5100376;28;20333;-68
2022/07/13 07:09:36;;;;;;;;;;;;;;;23.44;48.91;99473.59;5098494;28;19980;-68
2022/07/13 07:12:02;;;;;;;;;;;;;;;23.69;48.16;99464.88;5100667;28;19932;-68
2022/07/13 07:14:32;;;;;;;;;;;;;;;24.01;46.74;99466.56;5102706;28;20070;-68
2022/07/13 07:16:58;;;;;;;;;;;;;;;23.99;46.91;99455.81;5101268;28;19927;-68
2022/07/13 07:19:24;;;;;;;;;;;;;;;24.09;46.63;99473.94;5097569;28;20300;-68
2022/07/13 07:21:51;;;;;;;;;;;;;;;24.21;44.95;99473.72;5097511;28;20442;-68
2022/07/13 07:24:17;;;;;;;;;;;;;;;23.90;43.52;99456.06;5098408;28;19928;-68
2022/07/13 07:26:42;;;;;;;;;;;;;;;23.70;43.98;99457.31;5094666;28;20330;-69
2022/07/13 07:29:09;;;;;;;;;;;;;;;23.51;44.27;99458.97;5097102;28;19932;-70
2022/07/13 07:31:35;;;;;;;;;;;;;;;23.29;44.46;99474.50;5078815;28;19968;-68
2022/07/13 07:34:01;;;;;;;;;;;;;;;23.02;45.39;99466.00;5074799;28;20570;-69
2022/07/13 07:36:26;;;;;;;;;;;;;;;23.02;45.18;99461.25;5080040;28;20030;-67
2022/07/13 07:38:54;;;;;;;;;;;;;;;23.75;44.40;99462.59;5088081;28;19928;-68
2022/07/13 07:41:20;;;;;;;;;;;;;;;24.29;42.27;99466.25;5067158;28;19928;-68
2022/07/13 07:43:46;;;;;;;;;;;;;;;24.63;40.19;99455.16;5064367;28;20422;-68
2022/07/13 07:46:12;;;;;;;;;;;;;;;24.78;39.41;99453.38;5064256;28;19932;-68
2022/07/13 07:48:38;;;;;;;;;;;;;;;24.81;39.06;99462.16;5064777;28;19963;-68
2022/07/13 07:51:04;;;;;;;;;;;;;;;24.69;39.49;99460.41;5062299;28;19951;-70
2022/07/13 07:53:30;;;;;;;;;;;;;;;24.59;40.00;99467.47;5069180;28;19928;-68
2022/07/13 07:55:57;;;;;;;;;;;;;;;24.16;41.20;99462.06;5052043;28;19929;-68
2022/07/13 07:58:23;;;;;;;;;;;;;;;23.61;42.61;99465.94;5061751;28;19928;-68
2022/07/13 08:00:49;;;;;;;;;;;;;;;23.25;42.49;99473.63;5063658;28;19933;-68
2022/07/13 08:03:15;;;;;;;;;;;;;;;23.06;42.74;99483.63;5064302;28;19971;-68
2022/07/13 08:05:44;;;;;;;;;;;;;;;22.92;43.01;99464.59;5046750;28;19958;-68
2022/07/13 08:08:10;;;;;;;;;;;;;;;23.04;42.52;99480.41;4711866;28;10000385;-68
2022/07/13 08:10:36;;;;;;;;;;;;;;;23.50;41.04;99479.69;5057972;28;19928;-68
2022/07/13 08:13:04;;;;;;;;;;;;;;;23.71;40.46;99467.28;5066207;28;19983;-66
2022/07/13 08:15:30;;;;;;;;;;;;;;;23.54;40.41;99460.22;5067668;28;19928;-69
2022/07/13 08:17:56;;;;;;;;;;;;;;;23.37;40.62;99462.34;5077088;28;20031;-68
2022/07/13 08:20:21;;;;;;;;;;;;;;;23.12;40.66;99475.78;5084312;28;19928;-68
2022/07/13 08:22:47;;;;;;;;;;;;;;;23.12;40.68;99470.97;5070884;28;20384;-68
2022/07/13 08:25:13;;;;;;;;;;;;;;;23.12;41.48;99453.47;5069443;28;20490;-68
2022/07/13 08:27:39;;;;;;;;;;;;;;;23.18;41.63;99457.56;5073502;28;19968;-67
2022/07/13 08:30:07;;;;;;;;;;;;;;;23.16;41.44;99457.13;5082286;28;20395;-68
2022/07/13 08:32:33;;;;;;;;;;;;;;;23.13;40.88;99455.88;5087979;28;20322;-67
2022/07/13 08:40:28;;;;;;;;;;;;;;;25.70;35.93;99457.94;5076268;28;19928;-69
2022/07/13 08:42:54;;;;;;;;;;;;;;;25.98;34.65;99448.97;5084971;28;19935;-68
2022/07/13 08:45:21;;;;;;;;;;;;;;;26.54;33.76;99443.34;5084370;28;20046;-67
2022/07/13 08:47:47;;;;;;;;;;;;;;;27.26;31.90;99467.28;5085055;28;20030;-68
2022/07/13 08:50:14;;;;;;;;;;;;;;;26.79;31.30;99448.28;5084582;28;19928;-67
2022/07/13 08:52:41;;;;;;;;;;;;;;;26.88;31.34;99440.31;5071166;28;19929;-68
2022/07/13 08:55:08;;;;;;;;;;;;;;;27.25;30.88;99432.00;5077099;28;19950;-67
2022/07/13 08:57:34;;;;;;;;;;;;;;;27.11;30.84;99427.97;5086120;28;19928;-68
2022/07/13 09:00:01;;;;;;;;;;;;;;;27.26;30.94;99442.81;5084230;28;20001;-68
2022/07/13 09:02:31;;;;;;;;;;;;;;;27.27;31.08;99432.41;5084487;28;20422;-67
2022/07/13 09:04:58;;;;;;;;;;;;;;;27.55;30.79;99439.28;5086840;28;20020;-67
2022/07/13 09:07:23;;;;;;;;;;;;;;;27.40;31.14;99441.25;5071987;28;20386;-67
2022/07/13 09:09:52;;;;;;;;;;;;;;;26.46;31.32;99436.13;5065858;28;19960;-67
2022/07/13 09:12:20;;;;;;;;;;;;;;;26.08;32.15;99447.47;5064254;28;19932;-67
2022/07/13 09:14:51;;;;;;;;;;;;;;;26.50;31.82;99442.53;5067633;28;19929;-68
2022/07/13 09:17:27;;;;;;;;;;;;;;;27.07;31.61;99440.38;5078519;28;19939;-68
2022/07/13 09:19:54;;;;;;;;;;;;;;;26.76;31.98;99435.03;5069358;28;19932;-70
2022/07/13 09:22:20;;;;;;;;;;;;;;;26.08;33.19;99438.25;5059117;28;20470;-68
2022/07/13 09:24:46;;;;;;;;;;;;;;;25.41;33.74;99454.84;5061095;28;19929;-69
2022/07/13 09:27:12;;;;;;;;;;;;;;;25.35;33.40;99437.59;5027501;28;19963;-68
2022/07/13 09:29:38;;;;;;;;;;;;;;;25.64;33.00;99443.50;5059757;28;19928;-68
2022/07/13 09:32:06;;;;;;;;;;;;;;;26.80;32.01;99430.25;5062187;28;20430;-68
2022/07/13 09:34:46;;;;;;;;;;;;;;;27.17;30.90;99422.78;5073143;28;19934;-68
2022/07/13 09:37:14;;;;;;;;;;;;;;;27.65;30.23;99427.25;5056522;28;20031;-67
2022/07/13 09:39:54;;;;;;;;;;;;;;;27.55;30.22;99414.00;5062866;28;19982;-69
2022/07/13 09:42:24;;;;;;;;;;;;;;;26.78;31.20;99423.44;5074506;28;19927;-67
2022/07/13 09:47:40;;;;;;;;;;;;;;;25.73;32.74;99418.78;5069538;28;19986;-68
2022/07/13 09:50:06;;;;;;;;;;;;;;;27.06;30.90;99414.31;5075309;28;19932;-67
2022/07/13 09:52:33;;;;;;;;;;;;;;;28.34;29.43;99412.34;5078143;28;19928;-68
2022/07/13 09:55:01;;;;;;;;;;;;;;;29.55;27.93;99403.69;5076137;28;19940;-69
2022/07/13 09:57:29;;;;;;;;;;;;;;;29.82;26.74;99397.44;5071808;28;19936;-68
2022/07/13 09:59:56;;;;;;;;;;;;;;;28.69;28.74;99402.19;5062360;28;19935;-68
2022/07/13 10:02:22;;;;;;;;;;;;;;;27.58;30.08;99410.41;5059486;28;20260;-68
2022/07/13 10:04:49;;;;;;;;;;;;;;;26.68;31.05;99406.16;5060244;28;19952;-68
2022/07/13 10:07:15;;;;;;;;;;;;;;;26.21;31.74;99389.13;5067911;28;20034;-68
2022/07/13 10:09:42;;;;;;;;;;;;;;;26.40;31.87;99390.03;5082209;28;20030;-69
2022/07/13 10:12:10;;;;;;;;;;;;;;;27.38;30.04;99370.69;5076964;28;19936;-68
2022/07/13 10:14:36;;;;;;;;;;;;;;;27.09;30.82;99379.88;5072130;28;20346;-68
2022/07/13 10:17:06;;;;;;;;;;;;;;;26.57;31.46;99386.50;5071814;28;20016;-68
2022/07/13 10:19:32;;;;;;;;;;;;;;;26.24;32.27;99384.75;5066324;28;19989;-68
2022/07/13 10:22:03;;;;;;;;;;;;;;;27.43;30.93;99379.50;5073229;28;19935;-68
2022/07/13 10:24:29;;;;;;;;;;;;;;;28.33;29.81;99375.00;5049567;28;19932;-69
2022/07/13 10:27:09;;;;;;;;;;;;;;;28.01;29.89;99370.25;5065169;28;19935;-68
2022/07/13 10:29:46;;;;;;;;;;;;;;;27.21;30.86;99381.50;5062550;28;19947;-68
2022/07/13 10:32:15;;;;;;;;;;;;;;;26.51;31.89;99376.06;5057401;28;20311;-67
2022/07/13 10:34:51;;;;;;;;;;;;;;;26.13;32.64;99373.44;5063509;28;19950;-68
2022/07/13 10:37:17;;;;;;;;;;;;;;;25.79;33.72;99373.63;5059726;28;19963;-68
2022/07/13 10:39:58;;;;;;;;;;;;;;;25.94;34.21;99371.75;5062534;28;19967;-68
2022/07/13 10:42:23;;;;;;;;;;;;;;;26.66;35.17;99366.50;5062516;28;19955;-68
2022/07/13 10:44:50;;;;;;;;;;;;;;;28.54;32.80;99357.25;5065517;28;20011;-68
2022/07/13 10:47:20;;;;;;;;;;;;;;;30.18;30.80;99356.03;5070812;28;19967;-68
2022/07/13 10:49:51;;;;;;;;;;;;;;;31.19;29.85;99354.69;5073348;28;20398;-67
2022/07/13 10:52:47;;;;;;;;;;;;;;;31.86;29.03;99352.41;5068224;28;19982;-68
2022/07/13 10:55:29;;;;;;;;;;;;;;;30.53;30.58;99351.16;5068428;28;20065;-67
2022/07/13 10:57:55;;;;;;;;;;;;;;;29.12;32.85;99350.50;5080794;28;19928;-69
2022/07/13 11:00:36;;;;;;;;;;;;;;;28.64;34.09;99349.97;5080965;28;20418;-68
2022/07/13 11:03:03;;;;;;;;;;;;;;;30.18;31.44;99344.75;5082701;28;19928;-68
2022/07/13 11:05:33;;;;;;;;;;;;;;;31.76;29.25;99351.34;5083433;28;20043;-68
2022/07/13 11:08:11;;;;;;;;;;;;;;;31.08;30.19;99357.69;5083257;28;19986;-68
2022/07/13 11:10:37;;;;;;;;;;;;;;;31.06;28.97;99351.66;5054397;28;19966;-67
2022/07/13 11:13:03;;;;;;;;;;;;;;;30.53;29.71;99354.81;5082239;28;19959;-67
2022/07/13 11:15:44;;;;;;;;;;;;;;;29.51;30.15;99354.25;5086482;28;19951;-68
2022/07/13 11:18:31;;;;;;;;;;;;;;;28.27;32.21;99351.34;5085607;28;19928;-68
2022/07/13 11:20:57;;;;;;;;;;;;;;;28.56;32.22;99345.59;5082606;28;19928;-69
2022/07/13 11:26:12;;;;;;;;;;;;;;;29.83;30.21;99341.88;5089247;28;19932;-67
2022/07/13 11:28:43;;;;;;;;;;;;;;;30.61;28.63;99335.75;5087457;28;19935;-68
2022/07/13 11:31:12;;;;;;;;;;;;;;;31.47;27.66;99335.69;5087171;28;19936;-69
2022/07/13 11:33:47;;;;;;;;;;;;;;;33.10;25.67;99328.81;5084445;28;19936;-69
2022/07/13 11:36:14;;;;;;;;;;;;;;;33.87;23.90;99330.50;5068913;28;19989;-68
2022/07/13 11:38:40;;;;;;;;;;;;;;;33.15;24.71;99321.81;5069859;28;20556;-68
2022/07/13 11:41:06;;;;;;;;;;;;;;;31.44;26.32;99332.94;5066521;28;20030;-68
2022/07/13 11:43:32;;;;;;;;;;;;;;;31.39;26.67;99331.41;5069082;28;19940;-69
2022/07/13 11:45:58;;;;;;;;;;;;;;;32.86;24.76;99328.94;5071738;28;19928;-68
2022/07/13 11:48:31;;;;;;;;;;;;;;;32.33;25.23;99311.91;5088033;28;20052;-69
2022/07/13 11:50:58;;;;;;;;;;;;;;;30.86;27.35;99323.34;5086641;28;19935;-66
2022/07/13 11:53:26;;;;;;;;;;;;;;;29.37;28.65;99316.53;5089027;28;19928;-68
2022/07/13 11:55:54;;;;;;;;;;;;;;;28.25;29.36;99325.66;5086259;28;19928;-68
2022/07/13 11:58:23;;;;;;;;;;;;;;;27.72;29.69;99323.38;5085340;28;19927;-68
2022/07/13 12:00:50;;;;;;;;;;;;;;;27.21;30.73;99330.19;5074169;28;20317;-68
2022/07/13 12:03:23;;;;;;;;;;;;;;;27.04;31.29;99324.16;5078367;28;20035;-68
2022/07/13 12:05:49;;;;;;;;;;;;;;;26.95;31.27;99318.94;5062699;28;19936;-68
2022/07/13 12:08:17;;;;;;;;;;;;;;;26.98;31.17;99326.56;5069795;28;19929;-69
2022/07/13 12:10:43;;;;;;;;;;;;;;;27.09;31.16;99326.59;5063550;28;19967;-68
2022/07/13 12:13:09;;;;;;;;;;;;;;;27.48;29.97;99318.56;4717266;27;9999599;-68
2022/07/13 12:15:35;;;;;;;;;;;;;;;27.15;30.59;99307.34;5078262;28;19928;-68
2022/07/13 12:18:04;;;;;;;;;;;;;;;26.82;31.17;99312.91;5068476;28;20503;-68
2022/07/13 12:20:32;;;;;;;;;;;;;;;26.44;31.88;99315.19;5078070;28;19928;-67
2022/07/13 12:22:58;;;;;;;;;;;;;;;25.99;32.73;99306.97;5058241;28;19963;-68
2022/07/13 12:25:26;;;;;;;;;;;;;;;25.59;33.43;99310.31;5081777;28;19928;-65
2022/07/13 12:27:52;;;;;;;;;;;;;;;25.32;33.94;99313.31;5082106;28;19928;-67
2022/07/13 12:30:19;;;;;;;;;;;;;;;25.14;34.85;99310.34;5082860;28;19932;-68
2022/07/13 12:32:55;;;;;;;;;;;;;;;25.08;35.46;99309.13;5061055;28;19928;-65
2022/07/13 12:35:21;;;;;;;;;;;;;;;25.19;35.97;99310.00;5079137;28;19928;-68
2022/07/13 12:37:50;;;;;;;;;;;;;;;25.11;36.55;99310.31;5052201;28;19929;-68
2022/07/13 12:40:32;;;;;;;;;;;;;;;24.94;36.74;99314.56;4747399;28;10000555;-68
2022/07/13 12:43:00;;;;;;;;;;;;;;;24.66;37.34;99311.06;5060459;28;20375;-68
2022/07/13 12:45:30;;;;;;;;;;;;;;;24.54;38.03;99309.34;5063686;28;19932;-67
2022/07/13 12:47:56;;;;;;;;;;;;;;;24.48;38.51;99316.47;5065003;28;19929;-66
2022/07/13 12:50:25;;;;;;;;;;;;;;;24.39;38.96;99307.56;5074077;28;19935;-68
2022/07/13 12:52:59;;;;;;;;;;;;;;;24.21;39.21;99314.56;5064180;28;20364;-67
2022/07/13 12:55:24;;;;;;;;;;;;;;;23.99;39.57;99315.41;5076119;28;19928;-68
2022/07/13 12:57:51;;;;;;;;;;;;;;;23.79;39.99;99321.13;5068025;28;19928;-68